sensor_id;sensor_type;location;lat;lon;timestamp;temperature;humidity
8332;DHT22;4203;48.144;14.118;2022-11-25T00:01:33;3.10;99.90
8332;DHT22;4203;48.144;14.118;2022-11-25T00:04:02;3.10;99.90
8332;DHT22;4203;48.144;14.118;2022-11-25T00:06:30;3.10;99.90
8332;DHT22;4203;48.144;14.118;2022-11-25T00:08:59;3.10;99.90
8332;DHT22;4203;48.144;14.118;2022-11-25T00:11:27;3.10;99.90
8332;DHT22;4203;48.144;14.118;2022-11-25T00:13:55;3.10;99.90
8332;DHT22;4203;48.144;14.118;2022-11-25T00:16:23;3.00;99.90
8332;DHT22;4203;48.144;14.118;2022-11-25T00:18:52;3.00;99.90
8332;DHT22;4203;48.144;14.118;2022-11-25T00:21:23;3.00;99.90
8332;DHT22;4203;48.144;14.118;2022-11-25T00:23:53;2.70;99.90
8332;DHT22;4203;48.144;14.118;2022-11-25T00:26:21;2.90;99.90
8332;DHT22;4203;48.144;14.118;2022-11-25T00:28:49;3.00;99.90
8332;DHT22;4203;48.144;14.118;2022-11-25T00:31:19;2.90;99.90
8332;DHT22;4203;48.144;14.118;2022-11-25T00:33:47;2.90;99.90
8332;DHT22;4203;48.144;14.118;2022-11-25T00:36:16;3.00;99.90
8332;DHT22;4203;48.144;14.118;2022-11-25T00:38:46;2.90;99.90
8332;DHT22;4203;48.144;14.118;2022-11-25T00:41:18;2.90;99.90
8332;DHT22;4203;48.144;14.118;2022-11-25T00:44:02;2.90;99.90
8332;DHT22;4203;48.144;14.118;2022-11-25T00:46:46;2.90;99.90
8332;DHT22;4203;48.144;14.118;2022-11-25T00:49:13;2.90;99.90
8332;DHT22;4203;48.144;14.118;2022-11-25T00:51:40;2.90;99.90
8332;DHT22;4203;48.144;14.118;2022-11-25T00:54:09;2.90;99.90
8332;DHT22;4203;48.144;14.118;2022-11-25T00:56:36;2.90;99.90
8332;DHT22;4203;48.144;14.118;2022-11-25T00:59:03;2.80;99.90
8332;DHT22;4203;48.144;14.118;2022-11-25T01:01:31;2.80;99.90
8332;DHT22;4203;48.144;14.118;2022-11-25T01:03:58;2.70;99.90
8332;DHT22;4203;48.144;14.118;2022-11-25T01:06:25;2.60;99.90
8332;DHT22;4203;48.144;14.118;2022-11-25T01:08:53;2.40;99.90
8332;DHT22;4203;48.144;14.118;2022-11-25T01:11:22;2.30;99.90
8332;DHT22;4203;48.144;14.118;2022-11-25T01:13:49;2.30;99.90
8332;DHT22;4203;48.144;14.118;2022-11-25T01:16:20;2.30;99.90
8332;DHT22;4203;48.144;14.118;2022-11-25T01:18:47;2.30;99.90
8332;DHT22;4203;48.144;14.118;2022-11-25T01:21:17;2.20;99.90
8332;DHT22;4203;48.144;14.118;2022-11-25T01:23:45;2.10;99.90
8332;DHT22;4203;48.144;14.118;2022-11-25T01:26:15;2.00;99.90
8332;DHT22;4203;48.144;14.118;2022-11-25T01:28:44;2.00;99.90
8332;DHT22;4203;48.144;14.118;2022-11-25T01:31:13;1.90;99.90
8332;DHT22;4203;48.144;14.118;2022-11-25T01:33:41;1.80;99.90
8332;DHT22;4203;48.144;14.118;2022-11-25T01:36:11;1.80;99.90
8332;DHT22;4203;48.144;14.118;2022-11-25T01:38:39;1.70;99.90
8332;DHT22;4203;48.144;14.118;2022-11-25T01:41:07;1.70;99.90
8332;DHT22;4203;48.144;14.118;2022-11-25T01:43:34;1.60;99.90
8332;DHT22;4203;48.144;14.118;2022-11-25T01:46:06;1.60;99.90
8332;DHT22;4203;48.144;14.118;2022-11-25T01:48:38;1.60;99.90
8332;DHT22;4203;48.144;14.118;2022-11-25T01:51:15;1.50;99.90
8332;DHT22;4203;48.144;14.118;2022-11-25T01:53:45;1.50;99.90
8332;DHT22;4203;48.144;14.118;2022-11-25T01:56:12;1.40;99.90
8332;DHT22;4203;48.144;14.118;2022-11-25T01:58:40;1.30;99.90
8332;DHT22;4203;48.144;14.118;2022-11-25T02:01:09;1.20;99.90
8332;DHT22;4203;48.144;14.118;2022-11-25T02:03:40;1.10;99.90
8332;DHT22;4203;48.144;14.118;2022-11-25T02:06:11;1.10;99.90
8332;DHT22;4203;48.144;14.118;2022-11-25T02:08:42;1.10;99.90
8332;DHT22;4203;48.144;14.118;2022-11-25T02:11:13;1.00;99.90
8332;DHT22;4203;48.144;14.118;2022-11-25T02:13:42;0.90;99.90
8332;DHT22;4203;48.144;14.118;2022-11-25T02:16:10;1.00;99.90
8332;DHT22;4203;48.144;14.118;2022-11-25T02:18:38;1.10;99.90
8332;DHT22;4203;48.144;14.118;2022-11-25T02:21:05;1.00;99.90
8332;DHT22;4203;48.144;14.118;2022-11-25T02:23:38;1.10;99.90
8332;DHT22;4203;48.144;14.118;2022-11-25T02:26:08;0.90;99.90
8332;DHT22;4203;48.144;14.118;2022-11-25T02:28:35;0.90;99.90
8332;DHT22;4203;48.144;14.118;2022-11-25T02:31:03;0.90;99.90
8332;DHT22;4203;48.144;14.118;2022-11-25T02:33:30;1.00;99.90
8332;DHT22;4203;48.144;14.118;2022-11-25T02:35:59;0.90;99.90
8332;DHT22;4203;48.144;14.118;2022-11-25T02:38:36;0.80;99.90
8332;DHT22;4203;48.144;14.118;2022-11-25T02:41:09;0.80;99.90
8332;DHT22;4203;48.144;14.118;2022-11-25T02:43:37;0.80;99.90
8332;DHT22;4203;48.144;14.118;2022-11-25T02:46:06;0.70;99.90
8332;DHT22;4203;48.144;14.118;2022-11-25T02:48:35;0.70;99.90
8332;DHT22;4203;48.144;14.118;2022-11-25T02:51:03;0.70;99.90
8332;DHT22;4203;48.144;14.118;2022-11-25T02:53:30;0.60;99.90
8332;DHT22;4203;48.144;14.118;2022-11-25T02:55:58;0.60;99.90
8332;DHT22;4203;48.144;14.118;2022-11-25T02:58:27;0.50;99.90
8332;DHT22;4203;48.144;14.118;2022-11-25T03:00:55;0.50;99.90
8332;DHT22;4203;48.144;14.118;2022-11-25T03:03:22;0.50;99.90
8332;DHT22;4203;48.144;14.118;2022-11-25T03:05:49;0.50;99.90
8332;DHT22;4203;48.144;14.118;2022-11-25T03:08:17;0.50;99.90
8332;DHT22;4203;48.144;14.118;2022-11-25T03:10:44;0.50;99.90
8332;DHT22;4203;48.144;14.118;2022-11-25T03:13:11;0.50;99.90
8332;DHT22;4203;48.144;14.118;2022-11-25T03:15:40;0.50;99.90
8332;DHT22;4203;48.144;14.118;2022-11-25T03:18:07;0.50;99.90
8332;DHT22;4203;48.144;14.118;2022-11-25T03:20:36;0.50;99.90
8332;DHT22;4203;48.144;14.118;2022-11-25T03:23:04;0.60;99.90
8332;DHT22;4203;48.144;14.118;2022-11-25T03:25:32;0.50;99.90
8332;DHT22;4203;48.144;14.118;2022-11-25T03:27:59;0.40;99.90
8332;DHT22;4203;48.144;14.118;2022-11-25T03:30:27;0.20;99.90
8332;DHT22;4203;48.144;14.118;2022-11-25T03:32:56;0.10;99.90
8332;DHT22;4203;48.144;14.118;2022-11-25T03:35:23;0.10;99.90
8332;DHT22;4203;48.144;14.118;2022-11-25T03:37:50;0.10;99.90
8332;DHT22;4203;48.144;14.118;2022-11-25T03:40:17;0.20;99.90
8332;DHT22;4203;48.144;14.118;2022-11-25T03:42:44;0.10;99.90
8332;DHT22;4203;48.144;14.118;2022-11-25T03:45:13;0.10;99.90
8332;DHT22;4203;48.144;14.118;2022-11-25T03:47:42;0.10;99.90
8332;DHT22;4203;48.144;14.118;2022-11-25T03:50:12;0.00;99.90
8332;DHT22;4203;48.144;14.118;2022-11-25T03:52:40;0.00;99.90
8332;DHT22;4203;48.144;14.118;2022-11-25T03:55:08;0.00;99.90
8332;DHT22;4203;48.144;14.118;2022-11-25T03:57:37;0.00;99.90
8332;DHT22;4203;48.144;14.118;2022-11-25T04:00:06;-0.20;99.90
8332;DHT22;4203;48.144;14.118;2022-11-25T04:02:34;-0.30;99.90
8332;DHT22;4203;48.144;14.118;2022-11-25T04:05:01;-0.30;99.90
8332;DHT22;4203;48.144;14.118;2022-11-25T04:07:31;-0.30;99.90
8332;DHT22;4203;48.144;14.118;2022-11-25T04:09:58;-0.30;99.90
8332;DHT22;4203;48.144;14.118;2022-11-25T04:12:26;-0.30;99.90
8332;DHT22;4203;48.144;14.118;2022-11-25T04:15:10;-0.30;99.90
8332;DHT22;4203;48.144;14.118;2022-11-25T04:17:38;-0.20;99.90
8332;DHT22;4203;48.144;14.118;2022-11-25T04:20:06;-0.20;99.90
8332;DHT22;4203;48.144;14.118;2022-11-25T04:22:35;-0.20;99.90
8332;DHT22;4203;48.144;14.118;2022-11-25T04:25:03;-0.30;99.90
8332;DHT22;4203;48.144;14.118;2022-11-25T04:27:31;-0.30;99.90
8332;DHT22;4203;48.144;14.118;2022-11-25T04:29:58;-0.30;99.90
8332;DHT22;4203;48.144;14.118;2022-11-25T04:32:25;-0.20;99.90
8332;DHT22;4203;48.144;14.118;2022-11-25T04:34:52;-0.20;99.90
8332;DHT22;4203;48.144;14.118;2022-11-25T04:37:19;-0.20;99.90
8332;DHT22;4203;48.144;14.118;2022-11-25T04:39:48;-0.20;99.90
8332;DHT22;4203;48.144;14.118;2022-11-25T04:42:15;-0.20;99.90
8332;DHT22;4203;48.144;14.118;2022-11-25T04:44:57;-0.20;99.90
8332;DHT22;4203;48.144;14.118;2022-11-25T04:47:24;-0.30;99.90
8332;DHT22;4203;48.144;14.118;2022-11-25T04:49:51;-0.20;99.90
8332;DHT22;4203;48.144;14.118;2022-11-25T04:52:19;-0.30;99.90
8332;DHT22;4203;48.144;14.118;2022-11-25T04:54:47;-0.30;99.90
8332;DHT22;4203;48.144;14.118;2022-11-25T04:57:15;-0.40;99.90
8332;DHT22;4203;48.144;14.118;2022-11-25T04:59:43;-0.40;99.90
8332;DHT22;4203;48.144;14.118;2022-11-25T05:02:12;-0.40;99.90
8332;DHT22;4203;48.144;14.118;2022-11-25T05:04:40;-0.50;99.90
8332;DHT22;4203;48.144;14.118;2022-11-25T05:07:07;-0.50;99.90
8332;DHT22;4203;48.144;14.118;2022-11-25T05:09:35;-0.60;99.90
8332;DHT22;4203;48.144;14.118;2022-11-25T05:12:05;-0.60;99.90
8332;DHT22;4203;48.144;14.118;2022-11-25T05:14:32;-0.60;99.90
8332;DHT22;4203;48.144;14.118;2022-11-25T05:17:00;-0.60;99.90
8332;DHT22;4203;48.144;14.118;2022-11-25T05:19:27;-0.60;99.90
8332;DHT22;4203;48.144;14.118;2022-11-25T05:21:54;-0.70;99.90
8332;DHT22;4203;48.144;14.118;2022-11-25T05:24:22;-0.70;99.90
8332;DHT22;4203;48.144;14.118;2022-11-25T05:26:49;-0.70;99.90
8332;DHT22;4203;48.144;14.118;2022-11-25T05:29:17;-0.70;99.90
8332;DHT22;4203;48.144;14.118;2022-11-25T05:31:45;-0.70;99.90
8332;DHT22;4203;48.144;14.118;2022-11-25T05:34:12;-0.70;99.90
8332;DHT22;4203;48.144;14.118;2022-11-25T05:36:39;-0.70;99.90
8332;DHT22;4203;48.144;14.118;2022-11-25T05:39:06;-0.70;99.90
8332;DHT22;4203;48.144;14.118;2022-11-25T05:41:33;-0.70;99.90
8332;DHT22;4203;48.144;14.118;2022-11-25T05:44:00;-0.80;99.90
8332;DHT22;4203;48.144;14.118;2022-11-25T05:46:28;-0.70;99.90
8332;DHT22;4203;48.144;14.118;2022-11-25T05:48:56;-0.80;99.90
8332;DHT22;4203;48.144;14.118;2022-11-25T05:51:24;-0.70;99.90
8332;DHT22;4203;48.144;14.118;2022-11-25T05:53:53;-0.70;99.90
8332;DHT22;4203;48.144;14.118;2022-11-25T05:56:20;-0.70;99.90
8332;DHT22;4203;48.144;14.118;2022-11-25T05:58:47;-0.60;99.90
8332;DHT22;4203;48.144;14.118;2022-11-25T06:01:15;-0.70;99.90
8332;DHT22;4203;48.144;14.118;2022-11-25T06:03:44;-0.70;99.90
8332;DHT22;4203;48.144;14.118;2022-11-25T06:06:11;-0.70;99.90
8332;DHT22;4203;48.144;14.118;2022-11-25T06:08:39;-0.60;99.90
8332;DHT22;4203;48.144;14.118;2022-11-25T06:11:07;-0.60;99.90
8332;DHT22;4203;48.144;14.118;2022-11-25T06:13:34;-0.60;99.90
8332;DHT22;4203;48.144;14.118;2022-11-25T06:16:07;-0.50;99.90
8332;DHT22;4203;48.144;14.118;2022-11-25T06:18:35;-0.40;99.90
8332;DHT22;4203;48.144;14.118;2022-11-25T06:21:05;-0.40;99.90
8332;DHT22;4203;48.144;14.118;2022-11-25T06:23:33;-0.40;99.90
8332;DHT22;4203;48.144;14.118;2022-11-25T06:26:05;-0.30;99.90
8332;DHT22;4203;48.144;14.118;2022-11-25T06:28:32;-0.20;99.90
8332;DHT22;4203;48.144;14.118;2022-11-25T06:31:08;-0.20;99.90
8332;DHT22;4203;48.144;14.118;2022-11-25T06:33:35;-0.10;99.90
8332;DHT22;4203;48.144;14.118;2022-11-25T06:36:06;-0.10;99.90
8332;DHT22;4203;48.144;14.118;2022-11-25T06:38:33;0.00;99.90
8332;DHT22;4203;48.144;14.118;2022-11-25T06:41:01;0.00;99.90
8332;DHT22;4203;48.144;14.118;2022-11-25T06:43:29;0.00;99.90
8332;DHT22;4203;48.144;14.118;2022-11-25T06:46:01;0.00;99.90
8332;DHT22;4203;48.144;14.118;2022-11-25T06:48:28;0.00;99.90
8332;DHT22;4203;48.144;14.118;2022-11-25T06:50:56;0.00;99.90
8332;DHT22;4203;48.144;14.118;2022-11-25T06:53:26;0.00;99.90
8332;DHT22;4203;48.144;14.118;2022-11-25T06:56:08;0.10;99.90
8332;DHT22;4203;48.144;14.118;2022-11-25T06:58:36;0.20;99.90
8332;DHT22;4203;48.144;14.118;2022-11-25T07:01:05;0.20;99.90
8332;DHT22;4203;48.144;14.118;2022-11-25T07:03:33;0.30;99.90
8332;DHT22;4203;48.144;14.118;2022-11-25T07:06:01;0.30;99.90
8332;DHT22;4203;48.144;14.118;2022-11-25T07:08:29;0.40;99.90
8332;DHT22;4203;48.144;14.118;2022-11-25T07:11:02;0.40;99.90
8332;DHT22;4203;48.144;14.118;2022-11-25T07:13:30;0.50;99.90
8332;DHT22;4203;48.144;14.118;2022-11-25T07:16:00;0.50;99.90
8332;DHT22;4203;48.144;14.118;2022-11-25T07:18:29;0.60;99.90
8332;DHT22;4203;48.144;14.118;2022-11-25T07:21:01;0.60;99.90
8332;DHT22;4203;48.144;14.118;2022-11-25T07:23:30;0.60;99.90
8332;DHT22;4203;48.144;14.118;2022-11-25T07:26:01;0.70;99.90
8332;DHT22;4203;48.144;14.118;2022-11-25T07:28:29;0.70;99.90
8332;DHT22;4203;48.144;14.118;2022-11-25T07:31:03;0.80;99.90
8332;DHT22;4203;48.144;14.118;2022-11-25T07:33:30;0.80;99.90
8332;DHT22;4203;48.144;14.118;2022-11-25T07:36:01;0.80;99.90
8332;DHT22;4203;48.144;14.118;2022-11-25T07:38:29;0.90;99.90
8332;DHT22;4203;48.144;14.118;2022-11-25T07:41:03;0.90;99.90
8332;DHT22;4203;48.144;14.118;2022-11-25T07:43:30;0.90;99.90
8332;DHT22;4203;48.144;14.118;2022-11-25T07:46:10;0.90;99.90
8332;DHT22;4203;48.144;14.118;2022-11-25T07:48:37;1.00;99.90
8332;DHT22;4203;48.144;14.118;2022-11-25T07:51:12;1.10;99.90
8332;DHT22;4203;48.144;14.118;2022-11-25T07:53:41;1.10;99.90
8332;DHT22;4203;48.144;14.118;2022-11-25T07:56:08;1.20;99.90
8332;DHT22;4203;48.144;14.118;2022-11-25T07:58:36;1.40;99.90
8332;DHT22;4203;48.144;14.118;2022-11-25T08:01:03;1.40;99.90
8332;DHT22;4203;48.144;14.118;2022-11-25T08:03:31;1.40;99.90
8332;DHT22;4203;48.144;14.118;2022-11-25T08:06:00;1.50;99.90
8332;DHT22;4203;48.144;14.118;2022-11-25T08:08:27;1.50;99.90
8332;DHT22;4203;48.144;14.118;2022-11-25T08:10:56;1.50;99.90
8332;DHT22;4203;48.144;14.118;2022-11-25T08:13:23;1.50;99.90
8332;DHT22;4203;48.144;14.118;2022-11-25T08:15:51;1.40;99.90
8332;DHT22;4203;48.144;14.118;2022-11-25T08:18:19;1.50;99.90
8332;DHT22;4203;48.144;14.118;2022-11-25T08:20:46;1.50;99.90
8332;DHT22;4203;48.144;14.118;2022-11-25T08:23:13;1.50;99.90
8332;DHT22;4203;48.144;14.118;2022-11-25T08:25:41;1.60;99.90
8332;DHT22;4203;48.144;14.118;2022-11-25T08:28:09;1.60;99.90
8332;DHT22;4203;48.144;14.118;2022-11-25T08:30:36;1.80;99.90
8332;DHT22;4203;48.144;14.118;2022-11-25T08:33:03;1.80;99.90
8332;DHT22;4203;48.144;14.118;2022-11-25T08:35:32;1.80;99.90
8332;DHT22;4203;48.144;14.118;2022-11-25T08:38:03;1.90;99.90
8332;DHT22;4203;48.144;14.118;2022-11-25T08:40:30;1.90;99.90
8332;DHT22;4203;48.144;14.118;2022-11-25T08:42:57;2.00;99.90
8332;DHT22;4203;48.144;14.118;2022-11-25T08:45:27;2.00;99.90
8332;DHT22;4203;48.144;14.118;2022-11-25T08:47:56;2.00;99.90
8332;DHT22;4203;48.144;14.118;2022-11-25T08:50:23;2.00;99.90
8332;DHT22;4203;48.144;14.118;2022-11-25T08:52:51;2.00;99.90
8332;DHT22;4203;48.144;14.118;2022-11-25T08:55:19;2.00;99.90
8332;DHT22;4203;48.144;14.118;2022-11-25T08:57:51;2.10;99.90
8332;DHT22;4203;48.144;14.118;2022-11-25T09:00:18;2.30;99.90
8332;DHT22;4203;48.144;14.118;2022-11-25T09:02:50;2.20;99.90
8332;DHT22;4203;48.144;14.118;2022-11-25T09:05:17;2.30;99.90
8332;DHT22;4203;48.144;14.118;2022-11-25T09:07:44;2.20;99.90
8332;DHT22;4203;48.144;14.118;2022-11-25T09:10:14;2.40;99.90
8332;DHT22;4203;48.144;14.118;2022-11-25T09:12:41;2.50;99.90
8332;DHT22;4203;48.144;14.118;2022-11-25T09:15:10;2.80;99.90
8332;DHT22;4203;48.144;14.118;2022-11-25T09:17:37;3.00;99.90
8332;DHT22;4203;48.144;14.118;2022-11-25T09:20:07;3.30;99.90
8332;DHT22;4203;48.144;14.118;2022-11-25T09:22:36;3.50;99.90
8332;DHT22;4203;48.144;14.118;2022-11-25T09:25:04;3.60;99.90
8332;DHT22;4203;48.144;14.118;2022-11-25T09:27:32;3.60;99.90
8332;DHT22;4203;48.144;14.118;2022-11-25T09:32:28;3.70;99.90
8332;DHT22;4203;48.144;14.118;2022-11-25T09:34:56;3.70;99.90
8332;DHT22;4203;48.144;14.118;2022-11-25T09:37:31;3.60;99.90
8332;DHT22;4203;48.144;14.118;2022-11-25T09:40:00;3.60;99.90
8332;DHT22;4203;48.144;14.118;2022-11-25T09:42:38;3.60;99.90
8332;DHT22;4203;48.144;14.118;2022-11-25T09:45:49;2.90;99.90
8332;DHT22;4203;48.144;14.118;2022-11-25T09:48:55;3.60;99.90
8332;DHT22;4203;48.144;14.118;2022-11-25T09:51:31;3.70;99.90
8332;DHT22;4203;48.144;14.118;2022-11-25T09:54:09;3.90;99.90
8332;DHT22;4203;48.144;14.118;2022-11-25T09:56:42;3.70;99.90
8332;DHT22;4203;48.144;14.118;2022-11-25T09:59:18;4.70;99.90
8332;DHT22;4203;48.144;14.118;2022-11-25T10:01:53;3.70;99.90
8332;DHT22;4203;48.144;14.118;2022-11-25T10:04:33;3.70;99.90
8332;DHT22;4203;48.144;14.118;2022-11-25T10:07:03;3.70;99.90
8332;DHT22;4203;48.144;14.118;2022-11-25T10:09:39;3.80;99.90
8332;DHT22;4203;48.144;14.118;2022-11-25T10:12:16;4.10;99.90
8332;DHT22;4203;48.144;14.118;2022-11-25T10:14:52;4.00;99.90
8332;DHT22;4203;48.144;14.118;2022-11-25T10:17:34;4.00;99.90
8332;DHT22;4203;48.144;14.118;2022-11-25T10:20:13;3.80;99.90
8332;DHT22;4203;48.144;14.118;2022-11-25T10:22:47;4.00;99.90
8332;DHT22;4203;48.144;14.118;2022-11-25T10:25:23;4.00;99.90
8332;DHT22;4203;48.144;14.118;2022-11-25T10:27:59;4.10;99.90
8332;DHT22;4203;48.144;14.118;2022-11-25T10:30:34;4.10;99.90
8332;DHT22;4203;48.144;14.118;2022-11-25T10:33:37;4.20;99.90
8332;DHT22;4203;48.144;14.118;2022-11-25T10:36:16;4.20;99.90
8332;DHT22;4203;48.144;14.118;2022-11-25T10:39:02;4.20;99.90
8332;DHT22;4203;48.144;14.118;2022-11-25T10:42:06;3.70;99.90
8332;DHT22;4203;48.144;14.118;2022-11-25T10:45:24;3.40;99.90
8332;DHT22;4203;48.144;14.118;2022-11-25T10:48:12;4.40;99.90
8332;DHT22;4203;48.144;14.118;2022-11-25T10:51:10;4.80;99.90
8332;DHT22;4203;48.144;14.118;2022-11-25T10:54:11;4.50;99.90
8332;DHT22;4203;48.144;14.118;2022-11-25T10:56:52;4.50;99.90
8332;DHT22;4203;48.144;14.118;2022-11-25T10:59:55;4.50;99.90
8332;DHT22;4203;48.144;14.118;2022-11-25T11:02:39;4.60;99.90
8332;DHT22;4203;48.144;14.118;2022-11-25T11:05:33;4.10;99.90
8332;DHT22;4203;48.144;14.118;2022-11-25T11:08:23;4.90;99.90
8332;DHT22;4203;48.144;14.118;2022-11-25T11:11:32;4.70;99.90
8332;DHT22;4203;48.144;14.118;2022-11-25T11:14:20;4.60;99.90
8332;DHT22;4203;48.144;14.118;2022-11-25T11:17:31;4.80;99.90
8332;DHT22;4203;48.144;14.118;2022-11-25T11:20:20;4.60;99.90
8332;DHT22;4203;48.144;14.118;2022-11-25T11:23:03;4.70;99.90
8332;DHT22;4203;48.144;14.118;2022-11-25T11:25:43;4.70;99.90
8332;DHT22;4203;48.144;14.118;2022-11-25T11:28:38;4.70;99.90
8332;DHT22;4203;48.144;14.118;2022-11-25T11:31:29;4.70;99.90
8332;DHT22;4203;48.144;14.118;2022-11-25T11:34:15;4.70;99.90
8332;DHT22;4203;48.144;14.118;2022-11-25T11:40:11;4.70;99.90
8332;DHT22;4203;48.144;14.118;2022-11-25T11:43:12;4.70;99.90
8332;DHT22;4203;48.144;14.118;2022-11-25T11:46:14;4.70;99.90
8332;DHT22;4203;48.144;14.118;2022-11-25T11:49:01;4.70;99.90
8332;DHT22;4203;48.144;14.118;2022-11-25T11:51:41;4.90;99.90
8332;DHT22;4203;48.144;14.118;2022-11-25T11:54:45;4.90;99.90
8332;DHT22;4203;48.144;14.118;2022-11-25T11:57:33;4.90;99.90
8332;DHT22;4203;48.144;14.118;2022-11-25T12:00:12;4.90;99.90
8332;DHT22;4203;48.144;14.118;2022-11-25T12:03:09;4.90;99.90
8332;DHT22;4203;48.144;14.118;2022-11-25T12:06:04;4.90;99.90
8332;DHT22;4203;48.144;14.118;2022-11-25T12:08:48;4.90;99.90
8332;DHT22;4203;48.144;14.118;2022-11-25T12:11:29;5.00;99.90
8332;DHT22;4203;48.144;14.118;2022-11-25T12:14:05;5.00;99.90
8332;DHT22;4203;48.144;14.118;2022-11-25T12:16:56;6.70;99.90
8332;DHT22;4203;48.144;14.118;2022-11-25T12:19:48;5.10;99.90
8332;DHT22;4203;48.144;14.118;2022-11-25T12:22:35;5.20;99.90
8332;DHT22;4203;48.144;14.118;2022-11-25T12:25:23;5.20;99.90
8332;DHT22;4203;48.144;14.118;2022-11-25T12:27:59;5.20;99.90
8332;DHT22;4203;48.144;14.118;2022-11-25T12:30:39;5.30;99.90
8332;DHT22;4203;48.144;14.118;2022-11-25T12:33:19;5.10;99.90
8332;DHT22;4203;48.144;14.118;2022-11-25T12:39:22;5.30;99.90
8332;DHT22;4203;48.144;14.118;2022-11-25T12:41:55;5.10;99.90
8332;DHT22;4203;48.144;14.118;2022-11-25T12:44:31;5.50;99.90
8332;DHT22;4203;48.144;14.118;2022-11-25T12:47:02;5.50;99.90
8332;DHT22;4203;48.144;14.118;2022-11-25T12:49:48;5.60;99.90
8332;DHT22;4203;48.144;14.118;2022-11-25T12:52:48;5.70;99.90
8332;DHT22;4203;48.144;14.118;2022-11-25T12:55:55;5.70;99.90
8332;DHT22;4203;48.144;14.118;2022-11-25T12:58:44;5.70;99.90
8332;DHT22;4203;48.144;14.118;2022-11-25T13:01:39;5.60;99.90
8332;DHT22;4203;48.144;14.118;2022-11-25T13:04:36;5.60;99.90
8332;DHT22;4203;48.144;14.118;2022-11-25T13:07:28;5.70;99.90
8332;DHT22;4203;48.144;14.118;2022-11-25T13:13:33;5.60;99.90
8332;DHT22;4203;48.144;14.118;2022-11-25T13:16:28;5.60;99.90
8332;DHT22;4203;48.144;14.118;2022-11-25T13:18:58;5.40;99.90
8332;DHT22;4203;48.144;14.118;2022-11-25T13:21:28;5.50;99.90
8332;DHT22;4203;48.144;14.118;2022-11-25T13:23:59;5.50;99.90
8332;DHT22;4203;48.144;14.118;2022-11-25T13:26:48;5.50;99.90
8332;DHT22;4203;48.144;14.118;2022-11-25T13:32:42;5.50;99.90
8332;DHT22;4203;48.144;14.118;2022-11-25T13:35:36;5.40;99.90
8332;DHT22;4203;48.144;14.118;2022-11-25T13:38:34;5.50;99.90
8332;DHT22;4203;48.144;14.118;2022-11-25T13:44:22;5.50;99.90
8332;DHT22;4203;48.144;14.118;2022-11-25T13:46:58;5.40;99.90
8332;DHT22;4203;48.144;14.118;2022-11-25T13:49:53;5.30;99.90
8332;DHT22;4203;48.144;14.118;2022-11-25T13:52:39;5.20;99.90
8332;DHT22;4203;48.144;14.118;2022-11-25T13:55:35;5.20;99.90
8332;DHT22;4203;48.144;14.118;2022-11-25T13:58:19;5.50;99.90
8332;DHT22;4203;48.144;14.118;2022-11-25T14:03:54;5.20;99.90
8332;DHT22;4203;48.144;14.118;2022-11-25T14:06:55;5.20;99.90
8332;DHT22;4203;48.144;14.118;2022-11-25T14:09:52;5.30;99.90
8332;DHT22;4203;48.144;14.118;2022-11-25T14:12:49;5.30;99.90
8332;DHT22;4203;48.144;14.118;2022-11-25T14:26:23;5.10;99.90
8332;DHT22;4203;48.144;14.118;2022-11-25T14:29:18;5.10;99.90
8332;DHT22;4203;48.144;14.118;2022-11-25T14:32:00;5.00;99.90
8332;DHT22;4203;48.144;14.118;2022-11-25T14:37:54;5.10;99.90
8332;DHT22;4203;48.144;14.118;2022-11-25T14:40:39;5.10;99.90
8332;DHT22;4203;48.144;14.118;2022-11-25T14:43:42;5.00;99.90
8332;DHT22;4203;48.144;14.118;2022-11-25T14:46:26;5.00;99.90
8332;DHT22;4203;48.144;14.118;2022-11-25T14:49:49;5.00;99.90
8332;DHT22;4203;48.144;14.118;2022-11-25T14:52:21;4.90;99.90
8332;DHT22;4203;48.144;14.118;2022-11-25T14:54:54;5.10;99.90
8332;DHT22;4203;48.144;14.118;2022-11-25T14:57:27;4.90;99.90
8332;DHT22;4203;48.144;14.118;2022-11-25T15:00:30;4.80;99.90
8332;DHT22;4203;48.144;14.118;2022-11-25T15:03:44;4.90;99.90
8332;DHT22;4203;48.144;14.118;2022-11-25T15:06:16;4.80;99.90
8332;DHT22;4203;48.144;14.118;2022-11-25T15:09:02;4.50;99.90
8332;DHT22;4203;48.144;14.118;2022-11-25T15:11:34;4.20;99.90
8332;DHT22;4203;48.144;14.118;2022-11-25T15:14:34;4.80;99.90
8332;DHT22;4203;48.144;14.118;2022-11-25T15:20:38;4.60;99.90
8332;DHT22;4203;48.144;14.118;2022-11-25T15:23:14;4.60;99.90
8332;DHT22;4203;48.144;14.118;2022-11-25T15:26:27;4.50;99.90
8332;DHT22;4203;48.144;14.118;2022-11-25T15:29:12;4.50;99.90
8332;DHT22;4203;48.144;14.118;2022-11-25T15:31:44;4.40;99.90
8332;DHT22;4203;48.144;14.118;2022-11-25T15:34:31;4.50;99.90
8332;DHT22;4203;48.144;14.118;2022-11-25T15:37:37;4.10;99.90
8332;DHT22;4203;48.144;14.118;2022-11-25T15:40:52;4.50;99.90
8332;DHT22;4203;48.144;14.118;2022-11-25T15:43:38;4.60;99.90
8332;DHT22;4203;48.144;14.118;2022-11-25T15:49:59;4.60;99.90
8332;DHT22;4203;48.144;14.118;2022-11-25T15:52:59;4.60;99.90
8332;DHT22;4203;48.144;14.118;2022-11-25T15:55:41;4.50;99.90
8332;DHT22;4203;48.144;14.118;2022-11-25T15:58:19;4.50;99.90
8332;DHT22;4203;48.144;14.118;2022-11-25T16:01:02;4.50;99.90
8332;DHT22;4203;48.144;14.118;2022-11-25T16:03:30;4.50;99.90
8332;DHT22;4203;48.144;14.118;2022-11-25T16:05:58;4.50;99.90
8332;DHT22;4203;48.144;14.118;2022-11-25T16:08:36;4.60;99.90
8332;DHT22;4203;48.144;14.118;2022-11-25T16:11:12;4.60;99.90
8332;DHT22;4203;48.144;14.118;2022-11-25T16:13:42;4.60;99.90
8332;DHT22;4203;48.144;14.118;2022-11-25T16:16:18;4.60;99.90
8332;DHT22;4203;48.144;14.118;2022-11-25T16:18:54;4.50;99.90
8332;DHT22;4203;48.144;14.118;2022-11-25T16:21:24;4.60;99.90
8332;DHT22;4203;48.144;14.118;2022-11-25T16:24:17;4.50;99.90
8332;DHT22;4203;48.144;14.118;2022-11-25T16:27:02;4.50;99.90
8332;DHT22;4203;48.144;14.118;2022-11-25T16:29:46;4.50;99.90
8332;DHT22;4203;48.144;14.118;2022-11-25T16:32:18;4.50;99.90
8332;DHT22;4203;48.144;14.118;2022-11-25T16:34:46;4.50;99.90
8332;DHT22;4203;48.144;14.118;2022-11-25T16:37:14;4.50;99.90
8332;DHT22;4203;48.144;14.118;2022-11-25T16:39:44;4.50;99.90
8332;DHT22;4203;48.144;14.118;2022-11-25T16:42:16;4.50;99.90
8332;DHT22;4203;48.144;14.118;2022-11-25T16:44:46;4.50;99.90
8332;DHT22;4203;48.144;14.118;2022-11-25T16:47:15;4.50;99.90
8332;DHT22;4203;48.144;14.118;2022-11-25T16:49:45;4.50;99.90
8332;DHT22;4203;48.144;14.118;2022-11-25T16:52:12;4.50;99.90
8332;DHT22;4203;48.144;14.118;2022-11-25T16:54:44;4.50;99.90
8332;DHT22;4203;48.144;14.118;2022-11-25T16:57:16;4.40;99.90
8332;DHT22;4203;48.144;14.118;2022-11-25T16:59:45;4.30;99.90
8332;DHT22;4203;48.144;14.118;2022-11-25T17:02:16;4.40;99.90
8332;DHT22;4203;48.144;14.118;2022-11-25T17:04:46;4.40;99.90
8332;DHT22;4203;48.144;14.118;2022-11-25T17:07:17;4.40;99.90
8332;DHT22;4203;48.144;14.118;2022-11-25T17:09:46;4.30;99.90
8332;DHT22;4203;48.144;14.118;2022-11-25T17:12:26;4.30;99.90
8332;DHT22;4203;48.144;14.118;2022-11-25T17:14:57;4.30;99.90
8332;DHT22;4203;48.144;14.118;2022-11-25T17:17:30;4.30;99.90
8332;DHT22;4203;48.144;14.118;2022-11-25T17:20:00;4.30;99.90
8332;DHT22;4203;48.144;14.118;2022-11-25T17:22:28;4.30;99.90
8332;DHT22;4203;48.144;14.118;2022-11-25T17:24:57;4.30;99.90
8332;DHT22;4203;48.144;14.118;2022-11-25T17:27:29;4.20;99.90
8332;DHT22;4203;48.144;14.118;2022-11-25T17:30:00;4.30;99.90
8332;DHT22;4203;48.144;14.118;2022-11-25T17:32:33;4.20;99.90